createdAt,value
2018-03-04T00:00:09.508Z,0.56
2018-03-04T00:01:19.013Z,0.66
2018-03-04T00:02:28.502Z,0.53
2018-03-04T00:03:38.512Z,0.52
2018-03-04T00:04:47.970Z,0.42
2018-03-04T00:05:57.694Z,0.48
2018-03-04T00:07:07.737Z,0.53
2018-03-04T00:08:17.733Z,0.45
2018-03-04T00:09:27.784Z,0.53
2018-03-04T00:10:37.518Z,0.47
2018-03-04T00:11:47.254Z,0.45
2018-03-04T00:12:57.032Z,0.48
2018-03-04T00:14:06.259Z,0.5
2018-03-04T00:15:16.293Z,0.44
2018-03-04T00:16:26.026Z,0.42
2018-03-04T00:17:35.762Z,0.45
2018-03-04T00:18:45.511Z,0.39
2018-03-04T00:19:55.241Z,0.42
2018-03-04T00:21:05.247Z,0.37
2018-03-04T00:22:14.727Z,0.39
2018-03-04T00:23:24.736Z,0.31
2018-03-04T00:24:34.483Z,0.26
2018-03-04T00:25:43.954Z,0.32
2018-03-04T00:26:53.977Z,0.23
2018-03-04T00:28:03.734Z,0.23
2018-03-04T00:29:13.739Z,0.17
2018-03-04T00:30:23.468Z,0.17
2018-03-04T00:31:33.460Z,0.2
2018-03-04T00:32:42.935Z,0.16
2018-03-04T00:33:52.929Z,0.1
2018-03-04T00:35:02.678Z,0.05
2018-03-04T00:36:12.411Z,0.08
2018-03-04T00:37:22.144Z,0.14
2018-03-04T00:38:32.129Z,0.02
2018-03-04T00:39:42.146Z,0.02
2018-03-04T00:40:51.348Z,0.09
2018-03-04T00:42:00.836Z,0.03
2018-03-04T00:43:10.842Z,-0.02
2018-03-04T00:44:20.642Z,0.02
2018-03-04T00:45:30.629Z,-0.01
2018-03-04T00:46:40.098Z,-0.09
2018-03-04T00:47:49.567Z,-0.23
2018-03-04T00:48:59.278Z,-0.13
2018-03-04T00:50:09.021Z,-0.25
2018-03-04T00:51:19.020Z,-0.27
2018-03-04T00:52:29.030Z,-0.3
2018-03-04T00:53:38.762Z,-0.41
2018-03-04T00:54:48.759Z,-0.36
2018-03-04T00:55:58.734Z,-0.54
2018-03-04T00:57:08.452Z,-0.52
2018-03-04T00:58:18.434Z,-0.58
2018-03-04T00:59:28.160Z,-0.49
2018-03-04T01:00:37.894Z,-0.61
2018-03-04T01:01:47.894Z,-0.62
2018-03-04T01:02:57.873Z,-0.58
2018-03-04T01:04:07.620Z,-0.76
2018-03-04T01:05:17.612Z,-0.84
2018-03-04T01:06:27.092Z,-0.85
2018-03-04T01:07:37.119Z,-0.92
2018-03-04T01:08:47.124Z,-1.03
2018-03-04T01:09:56.611Z,-1.06
2018-03-04T01:11:06.577Z,-1.07
2018-03-04T01:12:16.571Z,-1.17
2018-03-04T01:13:26.344Z,-1.25
2018-03-04T01:14:36.332Z,-1.25
2018-03-04T01:15:46.356Z,-1.22
2018-03-04T01:16:56.358Z,-1.24
2018-03-04T01:18:06.359Z,-1.3
2018-03-04T01:19:16.093Z,-1.25
2018-03-04T01:20:25.818Z,-1.27
2018-03-04T01:21:35.286Z,-1.37
2018-03-04T01:22:45.266Z,-1.45
2018-03-04T01:23:55.259Z,-1.38
2018-03-04T01:25:05.063Z,-1.45
2018-03-04T01:26:14.271Z,-1.4
2018-03-04T01:27:24.252Z,-1.4
2018-03-04T01:28:34.235Z,-1.52
2018-03-04T01:29:43.962Z,-1.52
2018-03-04T01:30:53.453Z,-1.5
2018-03-04T01:32:03.186Z,-1.56
2018-03-04T01:33:13.190Z,-1.6
2018-03-04T01:34:22.929Z,-1.52
2018-03-04T01:35:32.405Z,-1.67
2018-03-04T01:36:42.395Z,-1.53
2018-03-04T01:37:51.861Z,-1.61
2018-03-04T01:39:01.856Z,-1.55
2018-03-04T01:40:11.847Z,-1.6
2018-03-04T01:41:21.854Z,-1.74
2018-03-04T01:42:31.897Z,-1.66
2018-03-04T01:43:41.879Z,-1.73
2018-03-04T01:44:51.614Z,-1.66
2018-03-04T01:46:01.086Z,-1.73
2018-03-04T01:47:11.085Z,-1.74
2018-03-04T01:48:20.824Z,-1.74
2018-03-04T01:49:30.540Z,-1.71
2018-03-04T01:50:40.534Z,-1.71
2018-03-04T01:51:50.528Z,-1.73
2018-03-04T01:53:00.257Z,-1.7
2018-03-04T01:54:10.237Z,-1.73
2018-03-04T01:55:20.260Z,-1.68
2018-03-04T01:56:30.241Z,-1.71
2018-03-04T01:57:40.008Z,-1.74
2018-03-04T01:58:49.773Z,-1.74
2018-03-04T01:59:59.819Z,-1.74
2018-03-04T02:01:09.040Z,-1.68
2018-03-04T02:02:18.811Z,-1.67
2018-03-04T02:03:28.544Z,-1.84
2018-03-04T02:04:38.538Z,-1.85
2018-03-04T02:05:48.517Z,-1.85
2018-03-04T02:06:58.518Z,-1.84
2018-03-04T02:08:08.244Z,-1.79
2018-03-04T02:09:17.722Z,-1.79
2018-03-04T02:10:27.940Z,-1.82
2018-03-04T02:11:37.674Z,-1.76
2018-03-04T02:12:47.666Z,-1.84
2018-03-04T02:13:57.157Z,-1.82
2018-03-04T02:15:06.900Z,-1.81
2018-03-04T02:16:16.623Z,-1.76
2018-03-04T02:17:26.609Z,-1.81
2018-03-04T02:18:36.070Z,-1.81
2018-03-04T02:19:45.806Z,-1.81
2018-03-04T02:20:55.804Z,-1.84
2018-03-04T02:22:05.536Z,-1.86
2018-03-04T02:23:15.033Z,-1.91
2018-03-04T02:24:24.771Z,-1.89
2018-03-04T02:25:34.522Z,-1.86
2018-03-04T02:26:44.507Z,-1.96
2018-03-04T02:27:53.973Z,-1.92
2018-03-04T02:29:03.961Z,-1.92
2018-03-04T02:30:13.946Z,-1.96
2018-03-04T02:31:23.965Z,-1.94
2018-03-04T02:32:33.972Z,-1.97
2018-03-04T02:33:43.188Z,-1.92
2018-03-04T02:34:53.220Z,-1.91
2018-03-04T02:36:02.957Z,-1.89
2018-03-04T02:37:13.025Z,-1.97
2018-03-04T02:38:23.015Z,-1.94
2018-03-04T02:39:33.004Z,-1.94
2018-03-04T02:40:42.994Z,-1.97
2018-03-04T02:41:53.002Z,-2
2018-03-04T02:43:02.752Z,-2.02
2018-03-04T02:44:12.743Z,-2.07
2018-03-04T02:45:22.212Z,-2.09
2018-03-04T02:46:32.227Z,-2.1
2018-03-04T02:47:42.240Z,-1.99
2018-03-04T02:48:51.972Z,-2.06
2018-03-04T02:50:01.698Z,-2.03
2018-03-04T02:51:11.180Z,-2.05
2018-03-04T02:52:21.172Z,-2.05
2018-03-04T02:53:30.948Z,-2.1
2018-03-04T02:54:40.664Z,-2.02
2018-03-04T02:55:50.642Z,-2.06
2018-03-04T02:57:00.385Z,-2.07
2018-03-04T02:58:09.597Z,-2.17
2018-03-04T02:59:19.593Z,-2.07
2018-03-04T03:00:29.326Z,-2.12
2018-03-04T03:01:39.323Z,-2.1
2018-03-04T03:02:49.062Z,-2.2
2018-03-04T03:03:59.076Z,-2.18
2018-03-04T03:05:09.088Z,-2.17
2018-03-04T03:06:26.698Z,-2.09
2018-03-04T03:07:36.685Z,-2.23
2018-03-04T03:08:46.445Z,-2.24
2018-03-04T03:40:07.079Z,-5.48
2018-03-04T03:41:17.054Z,-5.62
2018-03-04T03:42:26.771Z,-5.6
2018-03-04T03:43:36.751Z,-5.47
2018-03-04T03:44:46.730Z,-5.48
2018-03-04T03:45:56.713Z,-5.14
2018-03-04T03:47:06.454Z,-5.23
2018-03-04T03:48:16.186Z,-5.05
2018-03-04T03:49:25.901Z,-4.75
2018-03-04T03:50:35.869Z,-4.61
2018-03-04T03:51:45.861Z,-4.48
2018-03-04T03:52:55.848Z,-4.39
2018-03-04T03:54:05.574Z,-4.25
2018-03-04T03:55:15.298Z,-4.04
2018-03-04T03:56:25.299Z,-3.9
2018-03-04T03:57:35.126Z,-3.68
2018-03-04T03:58:45.134Z,-3.61
2018-03-04T03:59:54.888Z,-3.4
2018-03-04T04:01:04.893Z,-3.38
2018-03-04T04:02:14.882Z,-3.29
2018-03-04T04:03:24.354Z,-3.15
2018-03-04T04:04:33.577Z,-3.11
2018-03-04T04:05:43.316Z,-3
2018-03-04T04:06:53.045Z,-2.9
2018-03-04T04:08:02.785Z,-2.88
2018-03-04T04:09:12.886Z,-2.86
2018-03-04T04:10:22.359Z,-2.86
2018-03-04T04:11:32.097Z,-2.72
2018-03-04T04:12:41.567Z,-2.73
2018-03-04T04:13:51.288Z,-2.62
2018-03-04T04:15:01.062Z,-2.6
2018-03-04T04:16:10.532Z,-2.65
2018-03-04T04:17:20.264Z,-2.68
2018-03-04T04:18:30.255Z,-2.67
2018-03-04T04:19:40.251Z,-2.61
2018-03-04T04:20:50.251Z,-2.6
2018-03-04T04:22:00.083Z,-2.55
2018-03-04T04:23:09.563Z,-2.53
2018-03-04T04:24:19.560Z,-2.53
2018-03-04T04:25:29.549Z,-2.55
2018-03-04T04:26:39.593Z,-2.53
2018-03-04T04:27:49.593Z,-2.53
2018-03-04T04:28:59.652Z,-2.54
2018-03-04T04:30:09.395Z,-2.5
2018-03-04T04:31:19.389Z,-2.47
2018-03-04T04:32:29.377Z,-2.44
2018-03-04T04:33:39.368Z,-2.5
2018-03-04T04:34:49.365Z,-2.43
2018-03-04T04:35:59.346Z,-2.43
2018-03-04T04:37:09.350Z,-2.49
2018-03-04T04:38:19.342Z,-2.47
2018-03-04T04:39:29.057Z,-2.49
2018-03-04T04:40:39.023Z,-2.44
2018-03-04T04:41:48.482Z,-2.43
2018-03-04T04:42:58.224Z,-2.49
2018-03-04T04:44:07.437Z,-2.5
2018-03-04T04:45:17.444Z,-2.54
2018-03-04T04:46:27.429Z,-2.5
2018-03-04T04:47:37.160Z,-2.5
2018-03-04T04:48:46.904Z,-2.43
2018-03-04T04:49:56.629Z,-2.39
2018-03-04T04:51:06.640Z,-2.42
2018-03-04T04:52:16.632Z,-2.5
2018-03-04T04:53:26.652Z,-2.44
2018-03-04T04:54:35.855Z,-2.36
2018-03-04T04:55:45.844Z,-2.37
2018-03-04T04:56:55.822Z,-2.28
2018-03-04T04:58:05.836Z,-2.34
2018-03-04T04:59:15.878Z,-2.36
2018-03-04T05:00:25.671Z,-2.34
2018-03-04T05:01:34.662Z,-2.25
2018-03-04T05:02:44.713Z,-2.27
2018-03-04T05:03:54.515Z,-2.27
2018-03-04T05:05:04.561Z,-2.21
2018-03-04T05:06:14.617Z,-2.14
2018-03-04T05:07:24.132Z,-2.14
2018-03-04T05:08:33.918Z,-2.17
2018-03-04T05:09:43.709Z,-2.14
2018-03-04T05:10:53.765Z,-2.15
2018-03-04T05:12:03.824Z,-2.14
2018-03-04T05:13:13.638Z,-2.14
2018-03-04T05:14:23.686Z,-2.03
2018-03-04T05:15:33.226Z,-2.07
2018-03-04T05:16:42.499Z,-2.1
2018-03-04T05:17:51.765Z,-2.03
2018-03-04T05:19:01.874Z,-2.05
2018-03-04T05:20:11.671Z,-2
2018-03-04T05:21:21.737Z,-2
2018-03-04T05:22:31.780Z,-1.99
2018-03-04T05:23:41.316Z,-1.94
2018-03-04T05:24:51.092Z,-2
2018-03-04T05:26:01.144Z,-1.96
2018-03-04T05:27:10.941Z,-1.96
2018-03-04T05:28:21.007Z,-1.99
2018-03-04T05:29:30.808Z,-2
2018-03-04T05:30:41.823Z,-2.02
2018-03-04T05:31:53.672Z,-2.05
2018-03-04T05:33:03.461Z,-2.09
2018-03-04T05:34:12.985Z,-2.07
2018-03-04T05:35:22.776Z,-2.1
2018-03-04T05:36:32.570Z,-1.97
2018-03-04T05:37:42.600Z,-1.96
2018-03-04T05:38:52.393Z,-1.94
2018-03-04T05:40:02.465Z,-1.84
2018-03-04T05:41:11.456Z,-1.85
2018-03-04T05:42:21.557Z,-1.84
2018-03-04T05:43:31.356Z,-1.82
2018-03-04T05:44:41.150Z,-1.82
2018-03-04T05:45:51.203Z,-1.66
2018-03-04T05:47:00.979Z,-1.79
2018-03-04T05:48:11.058Z,-1.71
2018-03-04T05:49:20.839Z,-1.61
2018-03-04T05:50:30.730Z,-1.64
2018-03-04T05:51:40.536Z,-1.56
2018-03-04T05:52:50.325Z,-1.56
2018-03-04T05:54:00.112Z,-1.56
2018-03-04T05:55:09.919Z,-1.58
2018-03-04T05:56:19.969Z,-1.56
2018-03-04T05:57:30.034Z,-1.52
2018-03-04T05:58:39.886Z,-1.52
2018-03-04T05:59:49.774Z,-1.46
2018-03-04T06:00:59.560Z,-1.49
2018-03-04T06:02:09.162Z,-1.48
2018-03-04T06:03:18.949Z,-1.45
2018-03-04T06:04:29.000Z,-1.4
2018-03-04T06:05:39.118Z,-1.35
2018-03-04T06:06:49.170Z,-1.38
2018-03-04T06:07:58.975Z,-1.32
2018-03-04T06:09:08.764Z,-1.32
2018-03-04T06:10:18.548Z,-1.3
2018-03-04T06:11:28.611Z,-1.32
2018-03-04T06:12:38.690Z,-1.27
2018-03-04T06:13:48.484Z,-1.25
2018-03-04T06:14:58.532Z,-1.21
2018-03-04T06:16:08.605Z,-1.3
2018-03-04T06:17:18.704Z,-1.3
2018-03-04T06:18:28.499Z,-1.27
2018-03-04T06:19:38.028Z,-1.14
2018-03-04T06:20:47.823Z,-1.13
2018-03-04T06:21:57.613Z,-1.14
2018-03-04T06:23:07.460Z,-1.1
2018-03-04T06:24:17.511Z,-1.1
2018-03-04T06:25:27.317Z,-1.14
2018-03-04T06:26:37.094Z,-1.09
2018-03-04T06:27:46.631Z,-1.09
2018-03-04T06:28:56.484Z,-1.14
2018-03-04T06:30:06.535Z,-1.04
2018-03-04T06:31:16.597Z,-1.1
2018-03-04T06:32:26.650Z,-0.99
2018-03-04T06:33:36.714Z,-0.91
2018-03-04T06:34:46.788Z,-0.93
2018-03-04T06:35:56.858Z,-0.85
2018-03-04T06:37:06.384Z,-0.92
2018-03-04T06:38:15.925Z,-0.89
2018-03-04T06:39:25.704Z,-0.76
2018-03-04T06:40:35.503Z,-0.67
2018-03-04T06:41:45.037Z,-0.66
2018-03-04T06:42:55.088Z,-0.66
2018-03-04T06:44:05.153Z,-0.56
2018-03-04T06:45:14.692Z,-0.51
2018-03-04T06:46:24.754Z,-0.46
2018-03-04T06:47:34.548Z,-0.4
2018-03-04T06:48:44.343Z,-0.33
2018-03-04T06:49:54.126Z,-0.25
2018-03-04T06:51:04.291Z,-0.19
2018-03-04T06:52:14.129Z,-0.23
2018-03-04T06:53:23.934Z,-0.09
2018-03-04T06:54:34.048Z,-0.01
2018-03-04T06:55:43.578Z,-0.04
2018-03-04T06:56:53.650Z,0.06
2018-03-04T06:58:03.749Z,0.1
2018-03-04T06:59:13.818Z,0.28
2018-03-04T07:00:23.879Z,0.23
2018-03-04T07:01:33.928Z,0.34
2018-03-04T07:02:43.970Z,0.34
2018-03-04T07:03:54.073Z,0.38
2018-03-04T07:05:04.114Z,0.47
2018-03-04T07:06:13.919Z,0.58
2018-03-04T07:07:23.715Z,0.64
2018-03-04T07:08:32.982Z,0.67
2018-03-04T07:09:43.024Z,0.69
2018-03-04T07:10:52.806Z,0.74
2018-03-04T07:12:02.586Z,0.66
2018-03-04T07:13:12.381Z,0.74
2018-03-04T07:14:22.210Z,0.82
2018-03-04T07:15:32.320Z,0.99
2018-03-04T07:16:42.130Z,1.04
2018-03-04T07:17:51.934Z,1.21
2018-03-04T07:19:01.719Z,1.26
2018-03-04T07:20:11.521Z,1.3
2018-03-04T07:21:21.325Z,1.48
2018-03-04T07:22:31.398Z,1.47
2018-03-04T07:23:41.467Z,1.57
2018-03-04T07:24:51.267Z,1.44
2018-03-04T07:26:01.331Z,1.48
2018-03-04T07:27:11.130Z,1.44
2018-03-04T07:28:20.403Z,1.5
2018-03-04T07:29:30.253Z,1.44
2018-03-04T07:30:40.031Z,1.5
2018-03-04T07:31:49.552Z,1.46
2018-03-04T07:32:59.660Z,1.57
2018-03-04T07:34:08.918Z,1.66
2018-03-04T07:35:18.717Z,1.74
2018-03-04T07:36:28.823Z,1.75
2018-03-04T07:37:38.622Z,1.74
2018-03-04T07:38:48.767Z,1.83
2018-03-04T07:39:58.555Z,1.98
2018-03-04T07:41:08.608Z,2.11
2018-03-04T07:42:18.389Z,2.27
2018-03-04T07:43:28.456Z,2.41
2018-03-04T07:44:38.248Z,2.62
2018-03-04T07:45:48.038Z,2.77
2018-03-04T07:46:57.579Z,2.9
2018-03-04T07:48:07.676Z,3.14
2018-03-04T07:49:17.485Z,3.29
2018-03-04T07:50:27.613Z,3.42
2018-03-04T07:51:37.672Z,3.51
2018-03-04T07:52:47.736Z,3.56
2018-03-04T07:53:57.781Z,3.64
2018-03-04T07:55:07.573Z,3.67
2018-03-04T07:56:17.156Z,3.76
2018-03-04T07:57:27.217Z,3.72
2018-03-04T07:58:37.264Z,3.82
2018-03-04T07:59:47.343Z,3.72
2018-03-04T08:00:57.401Z,3.58
2018-03-04T08:02:06.949Z,3.49
2018-03-04T08:03:17.005Z,3.37
2018-03-04T08:04:26.544Z,3.4
2018-03-04T08:05:36.601Z,3.46
2018-03-04T08:06:46.386Z,3.46
2018-03-04T08:07:56.483Z,3.51
2018-03-04T08:09:06.576Z,3.66
2018-03-04T08:10:16.662Z,3.75
2018-03-04T08:11:26.342Z,3.85
2018-03-04T08:12:35.889Z,3.92
2018-03-04T08:13:45.993Z,3.99
2018-03-04T08:14:56.065Z,4.14
2018-03-04T08:16:05.589Z,4.18
2018-03-04T08:17:15.395Z,4.21
2018-03-04T08:18:25.451Z,4.18
2018-03-04T08:19:35.301Z,4.21
2018-03-04T08:20:44.843Z,4.29
2018-03-04T08:21:54.910Z,4.36
2018-03-04T08:23:04.696Z,4.51
2018-03-04T08:24:14.519Z,4.57
2018-03-04T08:25:24.688Z,4.72
2018-03-04T08:26:34.750Z,4.91
2018-03-04T08:27:44.311Z,5
2018-03-04T08:28:53.842Z,4.91
2018-03-04T08:30:03.665Z,4.68
2018-03-04T08:31:13.784Z,4.51
2018-03-04T08:32:23.584Z,4.33
2018-03-04T08:33:33.642Z,4.33
2018-03-04T08:34:43.695Z,4.18
2018-03-04T08:35:53.500Z,4.21
2018-03-04T08:37:03.303Z,4.14
2018-03-04T08:38:13.376Z,4.14
2018-03-04T08:39:23.429Z,4.12
2018-03-04T08:40:33.505Z,4.24
2018-03-04T08:41:43.330Z,4.33
2018-03-04T08:42:53.498Z,4.28
2018-03-04T08:44:03.331Z,4.36
2018-03-04T08:45:13.416Z,4.33
2018-03-04T08:46:23.221Z,4.38
2018-03-04T08:47:33.022Z,4.53
2018-03-04T08:48:43.104Z,4.54
2018-03-04T08:49:53.191Z,4.72
2018-03-04T08:51:02.732Z,4.75
2018-03-04T08:52:12.541Z,4.69
2018-03-04T08:53:22.616Z,4.58
2018-03-04T08:54:32.745Z,4.5
2018-03-04T08:55:42.843Z,4.6
2018-03-04T08:56:52.672Z,4.33
2018-03-04T08:58:02.483Z,4.4
2018-03-04T08:59:12.311Z,4.48
2018-03-04T09:00:22.179Z,4.68
2018-03-04T09:01:32.291Z,4.9
2018-03-04T09:02:42.360Z,5.05
2018-03-04T09:03:52.439Z,5.3
2018-03-04T09:05:02.557Z,5.44
2018-03-04T09:06:12.474Z,5.59
2018-03-04T09:07:22.312Z,5.72
2018-03-04T09:08:32.109Z,5.82
2018-03-04T09:09:41.657Z,5.88
2018-03-04T09:10:51.466Z,6.02
2018-03-04T09:12:01.524Z,5.99
2018-03-04T09:13:11.086Z,5.98
2018-03-04T09:14:20.643Z,6.02
2018-03-04T09:15:30.182Z,6.24
2018-03-04T09:16:40.272Z,6.36
2018-03-04T09:17:50.079Z,6.34
2018-03-04T09:19:00.146Z,6.34
2018-03-04T09:20:09.961Z,6.26
2018-03-04T09:21:20.062Z,6.34
2018-03-04T09:22:29.896Z,6.36
2018-03-04T09:23:39.780Z,6.49
2018-03-04T09:24:49.589Z,6.61
2018-03-04T09:25:59.668Z,6.67
2018-03-04T09:27:09.493Z,6.78
2018-03-04T09:28:19.374Z,6.8
2018-03-04T09:29:29.182Z,6.85
2018-03-04T09:30:39.286Z,6.78
2018-03-04T09:31:49.510Z,6.75
2018-03-04T09:32:58.842Z,6.8
2018-03-04T09:34:08.986Z,6.88
2018-03-04T09:35:18.960Z,6.88
2018-03-04T09:36:29.157Z,7.01
2018-03-04T09:37:39.010Z,7.15
2018-03-04T09:38:48.887Z,7.15
2018-03-04T09:39:58.966Z,7.34
2018-03-04T09:41:08.796Z,7.34
2018-03-04T09:42:18.614Z,7.33
2018-03-04T09:43:28.443Z,7.36
2018-03-04T09:44:38.008Z,7.33
2018-03-04T09:45:48.192Z,7.29
2018-03-04T09:46:58.292Z,7.23
2018-03-04T09:48:08.118Z,7.31
2018-03-04T09:49:17.953Z,7.39
2018-03-04T09:50:28.075Z,7.37
2018-03-04T09:51:37.340Z,7.44
2018-03-04T09:52:46.919Z,7.47
2018-03-04T09:53:56.517Z,7.55
2018-03-04T09:55:06.617Z,7.58
2018-03-04T09:56:16.785Z,7.75
2018-03-04T09:57:26.893Z,7.8
2018-03-04T09:58:36.968Z,7.92
2018-03-04T09:59:47.067Z,7.92
2018-03-04T10:00:57.154Z,8.09
2018-03-04T10:02:06.993Z,8.19
2018-03-04T10:03:16.570Z,8.21
2018-03-04T10:04:26.631Z,8.25
2018-03-04T10:05:36.726Z,8.32
2018-03-04T10:06:47.380Z,8.42
2018-03-04T10:07:58.000Z,8.42
2018-03-04T10:09:08.537Z,8.36
2018-03-04T10:10:18.145Z,8.42
2018-03-04T10:11:28.619Z,8.29
2018-03-04T10:12:38.772Z,8.26
2018-03-04T10:13:48.424Z,8.34
2018-03-04T10:14:58.621Z,8.32
2018-03-04T10:16:08.428Z,8.35
2018-03-04T10:17:18.253Z,8.39
2018-03-04T10:18:27.540Z,8.39
2018-03-04T10:19:37.157Z,8.36
2018-03-04T10:20:46.977Z,8.43
2018-03-04T10:21:57.058Z,8.44
2018-03-04T10:23:07.143Z,8.53
2018-03-04T10:24:16.969Z,8.53
2018-03-04T10:25:27.054Z,8.4
2018-03-04T10:26:36.620Z,8.4
2018-03-04T10:27:46.451Z,8.43
2018-03-04T10:28:56.251Z,8.49
2018-03-04T10:30:06.327Z,8.57
2018-03-04T10:31:16.220Z,8.58
2018-03-04T10:32:26.069Z,8.54
2018-03-04T10:33:35.649Z,8.42
2018-03-04T10:34:45.734Z,8.43
2018-03-04T10:35:55.811Z,8.42
2018-03-04T10:37:05.951Z,8.46
2018-03-04T10:38:16.043Z,8.46
2018-03-04T10:39:26.114Z,8.44
2018-03-04T10:40:36.198Z,8.43
2018-03-04T10:41:46.292Z,8.5
2018-03-04T10:42:56.405Z,8.5
2018-03-04T10:44:06.500Z,8.46
2018-03-04T10:45:16.606Z,8.47
2018-03-04T10:46:26.602Z,8.61
2018-03-04T10:47:36.662Z,8.68
2018-03-04T10:48:46.809Z,8.76
2018-03-04T10:49:56.946Z,8.77
2018-03-04T10:51:06.523Z,8.83
2018-03-04T10:52:16.556Z,8.9
2018-03-04T10:53:26.643Z,8.77
2018-03-04T10:54:36.752Z,8.77
2018-03-04T10:55:46.851Z,8.82
2018-03-04T10:56:56.922Z,8.79
2018-03-04T10:58:06.519Z,8.77
2018-03-04T10:59:16.591Z,8.83
2018-03-04T11:00:26.210Z,8.79
2018-03-04T11:01:36.024Z,8.71
2018-03-04T11:02:46.104Z,8.54
2018-03-04T11:03:56.278Z,8.6
2018-03-04T11:05:05.854Z,8.6
2018-03-04T11:06:15.662Z,8.34
2018-03-04T11:07:25.790Z,8.09
2018-03-04T11:08:35.622Z,7.86
2018-03-04T11:09:45.862Z,7.88
2018-03-04T11:10:55.716Z,7.82
2018-03-04T11:12:05.312Z,7.78
2018-03-04T11:13:15.172Z,7.89
2018-03-04T11:14:24.725Z,8.04
2018-03-04T11:15:34.279Z,8.09
2018-03-04T11:16:44.451Z,8.11
2018-03-04T11:17:54.523Z,8.24
2018-03-04T11:19:04.330Z,8.17
2018-03-04T11:20:13.886Z,8.47
2018-03-04T11:21:23.752Z,8.6
2018-03-04T11:22:33.888Z,8.79
2018-03-04T11:23:43.980Z,8.9
2018-03-04T11:24:54.055Z,9.2
2018-03-04T11:26:04.131Z,9.39
2018-03-04T11:27:14.246Z,9.41
2018-03-04T11:28:24.109Z,9.48
2018-03-04T11:29:34.204Z,9.67
2018-03-04T11:30:44.330Z,9.8
2018-03-04T11:31:54.444Z,9.75
2018-03-04T11:33:04.520Z,9.85
2018-03-04T11:34:14.603Z,9.84
2018-03-04T11:35:24.390Z,9.89
2018-03-04T11:36:34.479Z,9.75
2018-03-04T11:37:44.282Z,9.8
2018-03-04T11:38:53.566Z,9.66
2018-03-04T11:40:03.735Z,9.63
2018-03-04T11:41:13.820Z,9.5
2018-03-04T11:42:23.627Z,9.53
2018-03-04T11:43:33.456Z,9.41
2018-03-04T11:44:43.287Z,9.38
2018-03-04T11:45:53.368Z,9.26
2018-03-04T11:47:03.455Z,9.21
2018-03-04T11:48:13.266Z,9.14
2018-03-04T11:49:23.349Z,9.14
2018-03-04T11:50:33.438Z,9.04
2018-03-04T11:51:43.547Z,9.11
2018-03-04T11:52:53.621Z,9.05
2018-03-04T11:54:03.453Z,8.87
2018-03-04T11:55:13.260Z,8.71
2018-03-04T11:56:23.072Z,8.53
2018-03-04T11:57:32.681Z,8.16
2018-03-04T11:58:42.501Z,7.93
2018-03-04T11:59:52.059Z,7.91
2018-03-04T12:01:01.881Z,7.88
2018-03-04T12:02:11.952Z,7.85
2018-03-04T12:03:21.774Z,7.93
2018-03-04T12:04:31.607Z,7.78
2018-03-04T12:05:41.679Z,7.83
2018-03-04T12:06:51.887Z,7.74
2018-03-04T12:08:02.062Z,7.63
2018-03-04T12:09:11.619Z,7.54
2018-03-04T12:10:21.159Z,7.58
2018-03-04T12:11:31.245Z,7.49
2018-03-04T12:12:41.126Z,7.55
2018-03-04T12:13:51.217Z,7.49
2018-03-04T12:15:00.799Z,7.36
2018-03-04T12:16:10.620Z,7.31
2018-03-04T12:17:20.682Z,7.23
2018-03-04T12:18:30.775Z,7.3
2018-03-04T12:19:40.887Z,7.36
2018-03-04T12:20:50.698Z,7.39
2018-03-04T12:22:00.540Z,7.47
2018-03-04T12:23:10.446Z,7.63
2018-03-04T12:24:20.564Z,7.73
2018-03-04T12:25:30.440Z,7.86
2018-03-04T12:26:40.534Z,7.92
2018-03-04T12:27:50.357Z,8.01
2018-03-04T12:29:00.218Z,8.1
2018-03-04T12:30:10.056Z,8.16
2018-03-04T12:31:19.356Z,8.19
2018-03-04T12:32:29.443Z,8.24
2018-03-04T12:33:39.531Z,8.14
2018-03-04T12:34:49.077Z,8.16
2018-03-04T12:35:59.206Z,8.31
2018-03-04T12:37:08.768Z,8.29
2018-03-04T12:38:18.585Z,8.39
2018-03-04T12:39:28.424Z,8.43
2018-03-04T12:40:38.502Z,8.46
2018-03-04T12:41:48.040Z,8.47
2018-03-04T12:42:58.137Z,8.44
2018-03-04T12:44:07.961Z,8.5
2018-03-04T12:45:18.054Z,8.44
2018-03-04T12:46:28.149Z,8.58
2018-03-04T12:47:37.853Z,8.71
2018-03-04T12:48:47.947Z,8.82
2018-03-04T12:49:58.143Z,8.82
2018-03-04T12:51:07.985Z,8.94
2018-03-04T12:52:17.816Z,8.83
2018-03-04T12:53:27.977Z,8.95
2018-03-04T12:54:38.036Z,8.92
2018-03-04T12:55:47.901Z,8.79
2018-03-04T12:56:58.038Z,8.83
2018-03-04T12:58:08.637Z,8.67
2018-03-04T12:59:19.738Z,8.44
2018-03-04T13:00:29.541Z,8.44
2018-03-04T13:01:39.385Z,8.46
2018-03-04T13:02:49.320Z,8.6
2018-03-04T13:03:59.138Z,8.47
2018-03-04T13:05:09.028Z,8.62
2018-03-04T13:06:18.472Z,8.77
2018-03-04T13:07:28.551Z,8.76
2018-03-04T13:08:38.641Z,8.85
2018-03-04T13:09:48.773Z,8.77
2018-03-04T13:10:58.687Z,8.86
2018-03-04T13:12:08.566Z,8.86
2018-03-04T13:13:18.118Z,8.85
2018-03-04T13:14:28.005Z,8.89
2018-03-04T13:15:38.229Z,9
2018-03-04T13:16:48.394Z,8.97
2018-03-04T13:17:57.977Z,8.89
2018-03-04T13:19:08.125Z,8.8
2018-03-04T13:20:17.753Z,8.64
2018-03-04T13:21:27.852Z,8.77
2018-03-04T13:22:37.952Z,8.8
2018-03-04T13:23:47.771Z,8.94
2018-03-04T13:24:57.903Z,9.03
2018-03-04T13:26:07.728Z,9.2
2018-03-04T13:27:17.540Z,9.26
2018-03-04T13:28:27.450Z,9.42
2018-03-04T13:29:37.005Z,9.48
2018-03-04T13:30:46.860Z,9.66
2018-03-04T13:31:56.937Z,9.64
2018-03-04T13:33:07.047Z,9.81
2018-03-04T13:34:16.697Z,9.75
2018-03-04T13:35:26.894Z,9.8
2018-03-04T13:36:36.736Z,9.88
2018-03-04T13:37:46.826Z,9.95
2018-03-04T13:38:56.919Z,9.95
2018-03-04T13:40:06.739Z,10.03
2018-03-04T13:41:16.828Z,9.77
2018-03-04T13:42:26.927Z,9.63
2018-03-04T13:43:36.755Z,9.74
2018-03-04T13:44:46.839Z,9.77
2018-03-04T13:45:56.978Z,9.75
2018-03-04T13:47:07.075Z,9.63
2018-03-04T13:48:17.152Z,9.59
2018-03-04T13:49:27.204Z,9.35
2018-03-04T13:50:37.028Z,9.24
2018-03-04T13:51:46.888Z,9.16
2018-03-04T13:52:56.989Z,8.95
2018-03-04T13:54:06.812Z,8.8
2018-03-04T13:55:16.647Z,8.87
2018-03-04T13:56:26.724Z,8.67
2018-03-04T13:57:36.794Z,8.58
2018-03-04T13:58:46.886Z,8.46
2018-03-04T13:59:56.972Z,8.46
2018-03-04T14:01:07.050Z,8.4
2018-03-04T14:02:16.584Z,8.47
2018-03-04T14:03:26.704Z,8.49
2018-03-04T14:04:36.774Z,8.4
2018-03-04T14:05:46.603Z,8.42
2018-03-04T14:06:56.659Z,8.36
2018-03-04T14:08:06.759Z,8.31
2018-03-04T14:09:16.808Z,8.32
2018-03-04T14:10:26.615Z,8.34
2018-03-04T14:11:36.681Z,8.26
2018-03-04T14:12:46.483Z,8.19
2018-03-04T14:13:56.565Z,8.21
2018-03-04T14:15:06.419Z,8.28
2018-03-04T14:16:16.248Z,8.14
2018-03-04T14:17:26.081Z,8.24
2018-03-04T14:18:36.158Z,8.17
2018-03-04T14:19:46.254Z,8.11
2018-03-04T14:20:56.326Z,8.17
2018-03-04T14:22:06.404Z,8.28
2018-03-04T14:23:16.245Z,8.21
2018-03-04T14:24:26.066Z,8.24
2018-03-04T14:25:35.609Z,8.06
2018-03-04T14:26:45.733Z,8.11
2018-03-04T14:27:55.800Z,8.09
2018-03-04T14:29:05.605Z,8.07
2018-03-04T14:30:15.183Z,7.93
2018-03-04T14:31:25.003Z,8.03
2018-03-04T14:32:35.111Z,8.01
2018-03-04T14:33:44.647Z,7.92
2018-03-04T14:34:54.441Z,7.92
2018-03-04T14:36:04.542Z,7.88
2018-03-04T14:37:14.634Z,7.85
2018-03-04T14:38:24.698Z,7.86
2018-03-04T14:39:34.505Z,7.92
2018-03-04T14:40:44.063Z,7.77
2018-03-04T14:41:54.125Z,7.75
2018-03-04T14:43:04.215Z,7.8
2018-03-04T14:44:14.347Z,7.64
2018-03-04T14:45:24.207Z,7.7
2018-03-04T14:46:34.285Z,7.63
2018-03-04T14:47:44.382Z,7.61
2018-03-04T14:48:53.922Z,7.68
2018-03-04T14:50:03.507Z,7.54
2018-03-04T14:51:13.337Z,7.55
2018-03-04T14:52:23.427Z,7.54
2018-03-04T14:53:33.516Z,7.52
2018-03-04T14:54:43.054Z,7.51
2018-03-04T14:55:53.190Z,7.47
2018-03-04T14:57:02.765Z,7.37
2018-03-04T14:58:12.855Z,7.36
2018-03-04T14:59:22.697Z,7.39
2018-03-04T15:00:32.849Z,7.39
2018-03-04T15:01:42.981Z,7.34
2018-03-04T15:02:53.061Z,7.34
2018-03-04T15:04:02.873Z,7.31
2018-03-04T15:05:12.700Z,7.21
2018-03-04T15:06:22.569Z,7.26
2018-03-04T15:07:32.646Z,7.21
2018-03-04T15:08:42.463Z,7.26
2018-03-04T15:09:52.278Z,7.23
2018-03-04T15:11:02.380Z,7.26
2018-03-04T15:12:11.936Z,7.16
2018-03-04T15:13:22.012Z,7.13
2018-03-04T15:14:31.827Z,7.11
2018-03-04T15:15:41.904Z,7.13
2018-03-04T15:16:52.202Z,7.11
2018-03-04T15:18:02.401Z,7
2018-03-04T15:19:11.979Z,6.93
2018-03-04T15:20:21.775Z,6.98
2018-03-04T15:21:31.835Z,6.9
2018-03-04T15:22:41.908Z,6.86
2018-03-04T15:23:51.707Z,6.79
2018-03-04T15:25:01.840Z,6.72
2018-03-04T15:26:11.924Z,6.73
2018-03-04T15:27:22.012Z,6.64
2018-03-04T15:28:31.842Z,6.78
2018-03-04T15:29:41.663Z,6.64
2018-03-04T15:30:51.580Z,6.68
2018-03-04T15:32:01.368Z,6.61
2018-03-04T15:33:10.902Z,6.51
2018-03-04T15:34:20.460Z,6.4
2018-03-04T15:35:30.008Z,6.43
2018-03-04T15:36:40.150Z,6.31
2018-03-04T15:37:50.247Z,6.36
2018-03-04T15:39:00.420Z,6.29
2018-03-04T15:40:09.979Z,6.28
2018-03-04T15:41:20.071Z,6.15
2018-03-04T15:42:30.196Z,6.17
2018-03-04T15:43:40.031Z,6.14
2018-03-04T15:44:50.134Z,6.03
2018-03-04T15:46:00.309Z,6.03
2018-03-04T15:47:09.855Z,6.02
2018-03-04T15:48:19.977Z,6
2018-03-04T15:49:29.552Z,5.88
2018-03-04T15:50:39.406Z,5.84
2018-03-04T15:51:49.249Z,5.87
2018-03-04T15:52:59.361Z,5.8